Time;durP1;ratioP1;P1;durP2;ratioP2;P2;SDS_P1;SDS_P2;PMS_P1;PMS_P2;Temp;Humidity;BMP_temperature;BMP_pressure;BME280_temperature;BME280_humidity;BME280_pressure;Samples;Min_cycle;Max_cycle;Signal;HPM_P1;HPM_P2
2023/09/17 00:00:12;;;;;;;;;;;;;;;17.75;99.33;101487.06;4976362;28;19914;-73
2023/09/17 00:02:37;;;;;;;;;;;;;;;17.75;99.30;101480.94;4970561;28;19945;-73
2023/09/17 00:05:03;;;;;;;;;;;;;;;17.76;99.02;101475.53;4957418;28;19921;-73
2023/09/17 00:07:29;;;;;;;;;;;;;;;17.73;99.09;101470.41;4959592;28;19941;-73
2023/09/17 00:09:54;;;;;;;;;;;;;;;17.59;99.76;101465.09;4975125;28;19953;-73
2023/09/17 00:12:19;;;;;;;;;;;;;;;17.60;99.66;101467.66;4975444;28;20247;-73
2023/09/17 00:14:45;;;;;;;;;;;;;;;17.50;99.64;101469.19;4975800;28;19918;-73
2023/09/17 00:17:11;;;;;;;;;;;;;;;17.55;99.58;101467.09;4975690;28;19914;-73
2023/09/17 00:19:36;;;;;;;;;;;;;;;17.43;99.83;101459.91;4968649;28;19925;-73
2023/09/17 00:22:03;;;;;;;;;;;;;;;17.45;99.52;101456.19;4957193;28;19977;-73
2023/09/17 00:24:28;;;;;;;;;;;;;;;17.33;99.31;101454.28;4956983;28;19918;-73
2023/09/17 00:26:54;;;;;;;;;;;;;;;17.37;99.09;101454.94;4956232;28;20195;-73
2023/09/17 00:29:19;;;;;;;;;;;;;;;17.38;99.24;101449.56;4971645;28;19928;-73
2023/09/17 00:31:44;;;;;;;;;;;;;;;17.33;99.06;101441.03;4975293;28;20194;-73
2023/09/17 00:34:10;;;;;;;;;;;;;;;17.32;99.02;101442.00;4975150;28;20012;-73
2023/09/17 00:36:35;;;;;;;;;;;;;;;17.29;99.13;101438.69;4975583;28;20260;-73
2023/09/17 00:39:00;;;;;;;;;;;;;;;17.31;99.02;101431.50;4974896;28;19949;-73
2023/09/17 00:41:26;;;;;;;;;;;;;;;17.33;98.39;101434.91;4974572;28;19918;-73
2023/09/17 00:43:51;;;;;;;;;;;;;;;17.35;98.05;101436.50;4959928;28;19934;-73
2023/09/17 00:46:16;;;;;;;;;;;;;;;17.41;97.27;101435.31;4968307;28;19914;-73
2023/09/17 00:48:42;;;;;;;;;;;;;;;17.49;96.56;101432.19;4974501;28;19945;-73
2023/09/17 00:51:07;;;;;;;;;;;;;;;17.43;95.66;101430.78;4975232;28;20244;-73
2023/09/17 00:53:33;;;;;;;;;;;;;;;17.43;95.00;101428.97;4978134;28;19918;-73
2023/09/17 00:55:59;;;;;;;;;;;;;;;17.37;94.03;101426.72;4978639;28;19921;-73
2023/09/17 00:58:24;;;;;;;;;;;;;;;17.38;93.94;101428.38;4978602;28;20220;-73
2023/09/17 01:06:20;;;;;;;;;;;;;;;17.52;92.13;101424.06;4990102;28;20156;-73
2023/09/17 01:08:46;;;;;;;;;;;;;;;17.51;91.34;101431.16;4988911;28;19992;-73
2023/09/17 01:11:12;;;;;;;;;;;;;;;17.47;90.46;101421.69;4998405;28;19905;-73
2023/09/17 01:13:51;;;;;;;;;;;;;;;17.45;89.62;101419.13;4997911;28;19918;-73
2023/09/17 01:16:16;;;;;;;;;;;;;;;17.45;89.25;101415.66;4998343;28;19917;-73
2023/09/17 01:18:42;;;;;;;;;;;;;;;17.45;89.37;101416.50;4997914;28;19917;-73
2023/09/17 01:21:22;;;;;;;;;;;;;;;17.44;89.17;101413.94;4998615;28;19918;-73
2023/09/17 01:23:53;;;;;;;;;;;;;;;17.40;88.81;101410.63;4997791;28;19925;-73
2023/09/17 01:26:26;;;;;;;;;;;;;;;17.33;88.56;101409.28;4988806;28;19918;-73
2023/09/17 01:28:54;;;;;;;;;;;;;;;17.32;88.42;101407.59;4982517;28;20128;-73
2023/09/17 01:31:23;;;;;;;;;;;;;;;17.33;87.70;101413.72;4998364;28;20354;-73
2023/09/17 01:33:49;;;;;;;;;;;;;;;17.29;87.91;101394.53;4998070;28;20089;-73
2023/09/17 01:36:18;;;;;;;;;;;;;;;17.26;87.91;101406.16;4998604;28;19920;-73
2023/09/17 01:38:46;;;;;;;;;;;;;;;17.24;88.03;101396.59;4996257;28;19917;-73
2023/09/17 01:41:13;;;;;;;;;;;;;;;17.23;87.75;101387.81;4998327;28;20167;-73
2023/09/17 01:43:40;;;;;;;;;;;;;;;17.12;87.75;101387.63;4997896;28;19907;-73
2023/09/17 01:46:06;;;;;;;;;;;;;;;17.06;87.75;101382.66;4998285;28;19952;-73
2023/09/17 01:48:32;;;;;;;;;;;;;;;16.98;88.54;101380.47;4997921;28;19965;-73
2023/09/17 01:50:57;;;;;;;;;;;;;;;16.95;88.60;101385.94;4998064;28;19909;-73
2023/09/17 01:53:23;;;;;;;;;;;;;;;16.98;88.88;101383.13;4997862;28;20160;-73
2023/09/17 01:55:56;;;;;;;;;;;;;;;17.01;88.83;101388.25;4997980;28;19921;-73
2023/09/17 01:58:22;;;;;;;;;;;;;;;16.99;88.63;101379.56;4997825;28;20180;-73
2023/09/17 02:00:49;;;;;;;;;;;;;;;16.92;88.48;101377.34;4991587;28;19929;-73
2023/09/17 02:03:14;;;;;;;;;;;;;;;16.95;88.33;101382.44;4988977;28;20162;-73
2023/09/17 02:05:39;;;;;;;;;;;;;;;17.02;88.45;101395.22;4977293;28;20087;-73
2023/09/17 02:08:05;;;;;;;;;;;;;;;17.05;88.11;101397.69;4978023;28;19956;-73
2023/09/17 02:10:30;;;;;;;;;;;;;;;17.03;88.15;101389.00;4977759;28;20244;-73
2023/09/17 02:12:55;;;;;;;;;;;;;;;17.00;88.22;101393.63;4977934;28;19980;-73
2023/09/17 02:15:21;;;;;;;;;;;;;;;16.99;88.16;101392.78;4977926;28;20364;-73
2023/09/17 02:17:49;;;;;;;;;;;;;;;16.99;87.55;101395.44;4978077;28;20148;-73
2023/09/17 02:20:15;;;;;;;;;;;;;;;16.98;87.45;101392.88;4977485;28;19929;-73
2023/09/17 02:22:40;;;;;;;;;;;;;;;16.97;86.99;101392.03;4976735;28;19941;-73
2023/09/17 02:25:06;;;;;;;;;;;;;;;16.96;87.59;101398.25;4977195;28;20242;-73
2023/09/17 02:27:31;;;;;;;;;;;;;;;17.01;87.42;101388.25;4977494;28;19928;-73
2023/09/17 02:29:57;;;;;;;;;;;;;;;17.10;87.28;101394.78;4977034;28;19922;-73
2023/09/17 02:32:22;;;;;;;;;;;;;;;17.06;87.50;101386.19;4977166;28;20112;-73
2023/09/17 02:34:47;;;;;;;;;;;;;;;17.07;86.96;101387.03;4976394;28;20216;-73
2023/09/17 02:37:13;;;;;;;;;;;;;;;17.13;86.98;101389.28;4976905;28;20108;-73
2023/09/17 02:39:38;;;;;;;;;;;;;;;17.18;87.05;101384.59;4976684;28;19906;-73
2023/09/17 02:42:03;;;;;;;;;;;;;;;17.17;87.07;101382.03;4958214;28;19986;-73
2023/09/17 02:44:28;;;;;;;;;;;;;;;17.16;87.01;101383.00;4957738;28;19913;-73
2023/09/17 02:46:54;;;;;;;;;;;;;;;17.08;87.04;101373.72;4975048;28;19925;-73
2023/09/17 02:49:21;;;;;;;;;;;;;;;17.06;86.98;101375.59;4976639;28;20224;-73
2023/09/17 02:51:48;;;;;;;;;;;;;;;17.05;87.07;101379.19;4976671;28;19930;-73
2023/09/17 02:54:13;;;;;;;;;;;;;;;17.09;86.94;101377.19;4976780;28;19913;-73
2023/09/17 02:56:38;;;;;;;;;;;;;;;17.06;86.79;101378.25;4976204;28;20139;-73
2023/09/17 02:59:04;;;;;;;;;;;;;;;17.13;87.13;101378.72;4977484;28;19914;-72
2023/09/17 03:01:29;;;;;;;;;;;;;;;17.13;86.27;101377.88;4973371;28;19972;-72
2023/09/17 03:03:54;;;;;;;;;;;;;;;17.03;86.25;101370.47;4976205;28;19906;-72
2023/09/17 03:06:20;;;;;;;;;;;;;;;16.98;86.75;101372.53;4976478;28;19956;-72
2023/09/17 03:08:45;;;;;;;;;;;;;;;17.03;86.46;101364.34;4976034;28;19918;-72
2023/09/17 03:11:17;;;;;;;;;;;;;;;17.02;86.03;101367.91;4976480;28;19918;-72
2023/09/17 03:13:46;;;;;;;;;;;;;;;16.98;85.65;101361.13;4976344;28;19914;-72
2023/09/17 03:16:15;;;;;;;;;;;;;;;17.02;85.93;101357.34;4976075;28;20173;-72
2023/09/17 03:18:40;;;;;;;;;;;;;;;17.00;85.73;101360.06;4975617;28;20197;-72
2023/09/17 03:21:06;;;;;;;;;;;;;;;16.92;85.72;101362.34;4976247;28;19948;-72
2023/09/17 03:23:31;;;;;;;;;;;;;;;16.92;85.54;101356.16;4976298;28;19914;-72
2023/09/17 03:25:57;;;;;;;;;;;;;;;16.93;85.38;101357.88;4975231;28;19993;-72
2023/09/17 03:28:22;;;;;;;;;;;;;;;16.93;85.51;101353.44;4976412;28;19917;-72
2023/09/17 03:30:47;;;;;;;;;;;;;;;16.89;85.65;101359.84;4975354;28;19977;-72
2023/09/17 03:33:13;;;;;;;;;;;;;;;16.89;85.27;101360.69;4976334;28;19938;-72
2023/09/17 03:35:39;;;;;;;;;;;;;;;16.86;85.75;101365.31;4975072;28;19977;-72
2023/09/17 03:38:04;;;;;;;;;;;;;;;16.98;85.50;101361.97;4975010;28;20081;-72
2023/09/17 03:40:29;;;;;;;;;;;;;;;16.90;85.15;101358.94;4976054;28;20286;-72
2023/09/17 03:42:54;;;;;;;;;;;;;;;16.86;85.50;101352.97;4957130;28;19918;-72
2023/09/17 03:45:20;;;;;;;;;;;;;;;16.85;85.52;101353.91;4960107;28;19918;-72
2023/09/17 03:47:47;;;;;;;;;;;;;;;16.85;86.01;101350.41;4975120;28;20139;-72
2023/09/17 03:50:14;;;;;;;;;;;;;;;16.88;85.86;101351.09;4976430;28;20125;-72
2023/09/17 03:52:45;;;;;;;;;;;;;;;16.93;85.45;101356.09;4975039;28;20243;-72
2023/09/17 03:55:11;;;;;;;;;;;;;;;16.88;85.54;101355.50;4976199;28;19914;-72
2023/09/17 03:57:37;;;;;;;;;;;;;;;16.89;85.46;101351.91;4975237;28;19925;-72
2023/09/17 04:00:14;;;;;;;;;;;;;;;16.89;85.65;101347.47;4976284;28;20052;-72
2023/09/17 04:02:39;;;;;;;;;;;;;;;16.80;85.63;101352.44;4975405;28;19957;-72
2023/09/17 04:05:11;;;;;;;;;;;;;;;16.86;85.86;101354.75;4971322;28;19930;-72
2023/09/17 04:07:37;;;;;;;;;;;;;;;16.84;85.81;101359.28;4969840;28;19925;-72
2023/09/17 04:10:05;;;;;;;;;;;;;;;16.78;86.09;101359.63;4968616;28;20261;-72
2023/09/17 04:12:32;;;;;;;;;;;;;;;16.73;86.13;101354.56;4968076;28;19941;-72
2023/09/17 04:14:57;;;;;;;;;;;;;;;16.76;86.06;101356.22;4975340;28;19918;-71
2023/09/17 04:17:22;;;;;;;;;;;;;;;16.79;85.97;101356.00;4975812;28;19925;-71
2023/09/17 04:19:48;;;;;;;;;;;;;;;16.82;85.64;101356.69;4975339;28;19921;-72
2023/09/17 04:22:13;;;;;;;;;;;;;;;16.85;85.63;101361.00;4975474;28;19949;-72
2023/09/17 04:24:38;;;;;;;;;;;;;;;16.85;85.61;101361.84;4975146;28;20165;-72
2023/09/17 04:27:04;;;;;;;;;;;;;;;16.83;85.62;101361.06;4976965;28;19957;-72
2023/09/17 04:29:29;;;;;;;;;;;;;;;16.83;85.83;101358.44;4979229;28;19951;-72
2023/09/17 04:31:54;;;;;;;;;;;;;;;16.84;85.68;101353.97;4977918;28;19957;-72
2023/09/17 04:34:20;;;;;;;;;;;;;;;16.84;85.89;101356.63;4969105;28;20317;-72
2023/09/17 04:36:45;;;;;;;;;;;;;;;16.80;85.75;101357.72;4965174;28;19986;-72
2023/09/17 04:39:13;;;;;;;;;;;;;;;16.77;86.12;101360.53;4979602;28;19914;-72
2023/09/17 04:41:39;;;;;;;;;;;;;;;16.73;86.38;101361.66;4974885;28;19986;-72
2023/09/17 04:44:07;;;;;;;;;;;;;;;16.70;86.95;101360.06;4965627;28;19910;-72
2023/09/17 04:46:32;;;;;;;;;;;;;;;16.69;86.60;101353.91;4974956;28;20152;-72
2023/09/17 04:48:57;;;;;;;;;;;;;;;16.66;87.12;101354.09;4974340;28;19929;-72
2023/09/17 04:51:23;;;;;;;;;;;;;;;16.63;87.55;101348.97;4979329;28;19918;-72
2023/09/17 04:53:48;;;;;;;;;;;;;;;16.60;88.27;101348.31;4978642;28;20196;-72
2023/09/17 04:56:13;;;;;;;;;;;;;;;16.61;88.71;101344.75;4979505;28;20220;-72
2023/09/17 04:58:39;;;;;;;;;;;;;;;16.53;89.61;101347.81;4978428;28;20186;-72
2023/09/17 05:01:04;;;;;;;;;;;;;;;16.57;90.11;101346.72;4979384;28;20431;-72
2023/09/17 05:03:30;;;;;;;;;;;;;;;16.58;90.68;101339.63;4977946;28;19925;-72
2023/09/17 05:05:56;;;;;;;;;;;;;;;16.54;91.77;101349.53;4970288;28;19945;-72
2023/09/17 05:08:21;;;;;;;;;;;;;;;16.53;91.80;101341.66;4967073;28;19922;-72
2023/09/17 05:10:46;;;;;;;;;;;;;;;16.53;92.48;101350.44;4977674;28;19918;-72
2023/09/17 05:13:12;;;;;;;;;;;;;;;16.46;92.89;101349.97;4978778;28;19933;-72
2023/09/17 05:15:37;;;;;;;;;;;;;;;16.38;93.72;101354.81;4978161;28;19985;-72
2023/09/17 05:18:09;;;;;;;;;;;;;;;16.39;93.94;101348.59;4978525;28;19917;-72
2023/09/17 05:20:35;;;;;;;;;;;;;;;16.41;94.10;101351.13;4978414;28;19929;-72
2023/09/17 05:23:00;;;;;;;;;;;;;;;16.33;93.97;101353.38;4977605;28;20243;-72
2023/09/17 05:25:25;;;;;;;;;;;;;;;16.26;94.80;101344.94;4978932;28;19953;-72
2023/09/17 05:27:51;;;;;;;;;;;;;;;16.22;94.86;101341.63;4977918;28;19918;-72
2023/09/17 05:30:17;;;;;;;;;;;;;;;16.26;94.68;101353.75;4978803;28;19922;-72
2023/09/17 05:32:43;;;;;;;;;;;;;;;16.20;94.78;101345.28;4978327;28;19924;-72
2023/09/17 05:35:08;;;;;;;;;;;;;;;16.21;94.44;101346.97;4979012;28;19906;-72
2023/09/17 05:37:33;;;;;;;;;;;;;;;16.23;94.42;101350.41;4978483;28;20078;-72
2023/09/17 05:39:58;;;;;;;;;;;;;;;16.24;94.72;101349.47;4978423;28;20204;-72
2023/09/17 05:42:24;;;;;;;;;;;;;;;16.27;94.50;101347.50;4977808;28;20090;-72
2023/09/17 05:44:49;;;;;;;;;;;;;;;16.26;94.08;101348.47;4977794;28;20135;-72
2023/09/17 05:47:14;;;;;;;;;;;;;;;16.24;93.99;101346.81;4978248;28;20117;-72
2023/09/17 05:49:39;;;;;;;;;;;;;;;16.26;94.24;101342.28;4978069;28;20213;-72
2023/09/17 05:52:05;;;;;;;;;;;;;;;16.25;94.44;101340.59;4978440;28;19985;-72
2023/09/17 05:54:30;;;;;;;;;;;;;;;16.24;93.99;101342.38;4978957;28;19913;-72
2023/09/17 05:56:55;;;;;;;;;;;;;;;16.22;94.04;101340.78;4976913;28;20219;-72
2023/09/17 05:59:21;;;;;;;;;;;;;;;16.22;93.97;101338.13;4978457;28;19925;-72
2023/09/17 06:01:46;;;;;;;;;;;;;;;16.24;93.92;101339.72;4964557;28;19910;-72
2023/09/17 06:04:11;;;;;;;;;;;;;;;16.22;93.14;101338.13;4971089;28;20206;-72
2023/09/17 06:06:36;;;;;;;;;;;;;;;16.21;93.21;101339.06;4975848;28;19917;-72
2023/09/17 06:09:02;;;;;;;;;;;;;;;16.23;93.19;101334.56;4976798;28;19914;-72
2023/09/17 06:11:28;;;;;;;;;;;;;;;16.24;93.09;101339.72;4977174;28;20184;-72
2023/09/17 06:13:53;;;;;;;;;;;;;;;16.34;92.68;101334.81;4976933;28;20026;-72
2023/09/17 06:16:18;;;;;;;;;;;;;;;16.35;92.37;101336.47;4966932;28;20220;-72
2023/09/17 06:18:44;;;;;;;;;;;;;;;16.33;92.48;101333.09;4967161;28;20231;-72
2023/09/17 06:21:09;;;;;;;;;;;;;;;16.37;92.68;101336.41;4977019;28;19921;-72
2023/09/17 06:23:35;;;;;;;;;;;;;;;16.33;92.73;101338.38;4976365;28;19988;-72
2023/09/17 06:26:01;;;;;;;;;;;;;;;16.34;92.72;101333.97;4975641;28;20140;-72
2023/09/17 06:28:26;;;;;;;;;;;;;;;16.31;92.91;101324.41;4973881;28;20357;-72
2023/09/17 06:30:52;;;;;;;;;;;;;;;16.35;92.59;101328.56;4971910;28;19952;-72
2023/09/17 06:33:17;;;;;;;;;;;;;;;16.34;92.72;101329.50;4975371;28;19925;-71
2023/09/17 06:35:43;;;;;;;;;;;;;;;16.38;92.48;101328.38;4970680;28;20225;-71
2023/09/17 06:38:08;;;;;;;;;;;;;;;16.33;92.53;101332.25;4969281;28;19934;-71
2023/09/17 06:40:33;;;;;;;;;;;;;;;16.34;92.54;101331.31;4967889;28;20004;-71
2023/09/17 06:42:59;;;;;;;;;;;;;;;16.44;92.12;101335.13;4967047;28;19918;-71
2023/09/17 06:45:24;;;;;;;;;;;;;;;16.53;92.10;101345.16;4966936;28;19981;-71
2023/09/17 06:47:49;;;;;;;;;;;;;;;16.53;92.57;101347.81;4963247;28;19918;-71
2023/09/17 06:50:15;;;;;;;;;;;;;;;16.55;92.82;101348.56;4965669;28;19989;-71
2023/09/17 06:52:40;;;;;;;;;;;;;;;16.53;93.46;101339.88;4965712;28;20117;-72
2023/09/17 06:55:05;;;;;;;;;;;;;;;16.43;94.25;101342.19;4966533;28;19989;-71
2023/09/17 06:57:31;;;;;;;;;;;;;;;16.37;94.62;101344.34;4966575;28;19949;-71
2023/09/17 06:59:57;;;;;;;;;;;;;;;16.29;96.26;101344.78;4964801;28;20208;-71
2023/09/17 07:02:22;;;;;;;;;;;;;;;16.23;97.42;101343.34;4966790;28;19918;-71
2023/09/17 07:04:47;;;;;;;;;;;;;;;16.24;97.94;101349.47;4922017;28;1369437;-72
2023/09/17 07:07:13;;;;;;;;;;;;;;;16.26;98.84;101358.16;4969506;28;19918;-71
2023/09/17 07:09:38;;;;;;;;;;;;;;;16.26;99.69;101358.16;4969722;28;19922;-72
2023/09/17 07:12:03;;;;;;;;;;;;;;;16.22;100.00;101352.19;4969650;28;19918;-72
2023/09/17 07:14:29;;;;;;;;;;;;;;;16.15;100.00;101357.91;4971735;28;19918;-72
2023/09/17 07:16:54;;;;;;;;;;;;;;;16.14;100.00;101358.88;4974660;28;19917;-72
2023/09/17 07:19:19;;;;;;;;;;;;;;;16.05;100.00;101373.44;4971176;28;19918;-72
2023/09/17 07:21:44;;;;;;;;;;;;;;;16.10;100.00;101366.94;4976747;28;19920;-72
2023/09/17 07:24:10;;;;;;;;;;;;;;;16.03;100.00;101375.31;4976410;28;20209;-72
2023/09/17 07:26:35;;;;;;;;;;;;;;;15.95;100.00;101373.06;4976772;28;19918;-72
2023/09/17 07:29:03;;;;;;;;;;;;;;;15.92;100.00;101368.81;4976164;28;20221;-72
2023/09/17 07:31:28;;;;;;;;;;;;;;;15.93;100.00;101367.00;4977027;28;20109;-72
2023/09/17 07:33:53;;;;;;;;;;;;;;;15.83;100.00;101361.41;4975915;28;20167;-72
2023/09/17 07:36:19;;;;;;;;;;;;;;;15.85;100.00;101362.16;4976493;28;19920;-72
2023/09/17 07:38:44;;;;;;;;;;;;;;;15.82;100.00;101353.56;4967549;28;20191;-72
2023/09/17 07:41:09;;;;;;;;;;;;;;;15.84;100.00;101349.88;4976794;28;20197;-72
2023/09/17 07:43:35;;;;;;;;;;;;;;;15.73;100.00;101360.16;4970748;28;19952;-72
2023/09/17 07:46:00;;;;;;;;;;;;;;;15.75;100.00;101353.03;4971875;28;19953;-72
2023/09/17 07:48:28;;;;;;;;;;;;;;;15.75;100.00;101347.75;4960835;28;19922;-72
2023/09/17 07:50:54;;;;;;;;;;;;;;;15.78;100.00;101344.09;4961082;28;19918;-72
2023/09/17 07:53:20;;;;;;;;;;;;;;;15.67;100.00;101339.38;4964326;28;19945;-72
2023/09/17 07:55:45;;;;;;;;;;;;;;;15.61;100.00;101351.13;4961172;28;20154;-72
2023/09/17 07:58:10;;;;;;;;;;;;;;;15.60;100.00;101353.84;4972904;28;19925;-72
2023/09/17 08:00:35;;;;;;;;;;;;;;;15.63;100.00;101356.31;4964061;28;20176;-72
2023/09/17 08:03:02;;;;;;;;;;;;;;;15.61;100.00;101361.66;4963038;28;20272;-72
2023/09/17 08:05:27;;;;;;;;;;;;;;;15.68;100.00;101363.06;4962810;28;19961;-72
2023/09/17 08:07:52;;;;;;;;;;;;;;;15.71;100.00;101362.03;4963008;28;19925;-72
2023/09/17 08:10:17;;;;;;;;;;;;;;;15.74;100.00;101356.63;4961639;28;19929;-72
2023/09/17 08:12:43;;;;;;;;;;;;;;;15.66;100.00;101350.84;4959826;28;20274;-72
2023/09/17 08:15:09;;;;;;;;;;;;;;;15.70;100.00;101344.50;4962702;28;19911;-72
2023/09/17 08:17:34;;;;;;;;;;;;;;;15.71;100.00;101344.38;4963430;28;20234;-72
2023/09/17 08:19:59;;;;;;;;;;;;;;;15.81;100.00;101344.78;4958845;28;19918;-72
2023/09/17 08:22:27;;;;;;;;;;;;;;;15.77;100.00;101343.25;4960179;28;19922;-72
2023/09/17 08:24:52;;;;;;;;;;;;;;;15.72;100.00;101334.69;4961219;28;19918;-72
2023/09/17 08:27:19;;;;;;;;;;;;;;;15.66;100.00;101335.88;4962089;28;19914;-72
2023/09/17 08:29:45;;;;;;;;;;;;;;;15.64;100.00;101335.09;4963043;28;19960;-72
2023/09/17 08:32:11;;;;;;;;;;;;;;;15.73;100.00;101333.75;4963122;28;20247;-72
2023/09/17 08:34:36;;;;;;;;;;;;;;;15.69;100.00;101333.06;4963995;28;19924;-72
2023/09/17 08:37:03;;;;;;;;;;;;;;;15.74;100.00;101338.13;4963654;28;19914;-72
2023/09/17 08:39:29;;;;;;;;;;;;;;;15.81;100.00;101338.63;4967200;28;19925;-72
2023/09/17 08:41:54;;;;;;;;;;;;;;;15.93;100.00;101340.59;4963435;28;20117;-72
2023/09/17 08:44:20;;;;;;;;;;;;;;;15.89;100.00;101347.00;4966438;28;19983;-72
2023/09/17 08:46:45;;;;;;;;;;;;;;;15.73;100.00;101339.03;4963279;28;19918;-72
2023/09/17 08:49:11;;;;;;;;;;;;;;;15.69;100.00;101348.91;4962350;28;19923;-72
2023/09/17 08:51:37;;;;;;;;;;;;;;;15.78;100.00;101342.31;4963893;28;20105;-72
2023/09/17 08:54:14;;;;;;;;;;;;;;;15.81;100.00;101344.78;4963430;28;20208;-72
2023/09/17 08:56:43;;;;;;;;;;;;;;;15.82;100.00;101354.41;4964202;28;19918;-72
2023/09/17 08:59:29;;;;;;;;;;;;;;;15.87;100.00;101357.63;4963932;28;19925;-72
2023/09/17 09:01:55;;;;;;;;;;;;;;;15.76;100.00;101364.47;4962386;28;19925;-72
2023/09/17 09:04:22;;;;;;;;;;;;;;;15.72;100.00;101364.59;4962977;28;19918;-72
2023/09/17 09:06:47;;;;;;;;;;;;;;;15.76;100.00;101359.19;4962641;28;19925;-72
2023/09/17 09:09:14;;;;;;;;;;;;;;;15.76;100.00;101356.53;4964996;28;20129;-72
2023/09/17 09:11:39;;;;;;;;;;;;;;;15.80;100.00;101356.28;4964105;28;20135;-72
2023/09/17 09:14:06;;;;;;;;;;;;;;;15.79;100.00;101359.00;4965902;28;20298;-72
2023/09/17 09:16:37;;;;;;;;;;;;;;;15.70;100.00;101355.91;4966935;28;20137;-72
2023/09/17 09:19:02;;;;;;;;;;;;;;;15.66;100.00;101357.00;4966639;28;20232;-72
2023/09/17 09:21:28;;;;;;;;;;;;;;;15.79;100.00;101354.59;4968863;28;19918;-72
2023/09/17 09:23:54;;;;;;;;;;;;;;;15.80;100.00;101356.28;4965759;28;20065;-72
2023/09/17 09:26:20;;;;;;;;;;;;;;;15.81;100.00;101352.72;4966510;28;20238;-72
2023/09/17 09:28:46;;;;;;;;;;;;;;;15.86;100.00;101355.97;4965921;28;19961;-72
2023/09/17 09:31:11;;;;;;;;;;;;;;;15.94;100.00;101358.16;4967178;28;19918;-72
2023/09/17 09:33:36;;;;;;;;;;;;;;;16.03;100.00;101359.47;4975997;28;19928;-72
2023/09/17 09:36:02;;;;;;;;;;;;;;;16.06;100.00;101357.50;4976440;28;19918;-72
2023/09/17 09:38:28;;;;;;;;;;;;;;;16.13;100.00;101347.41;4976936;28;19944;-72
2023/09/17 09:40:53;;;;;;;;;;;;;;;16.18;100.00;101348.03;4976494;28;19918;-72
2023/09/17 09:43:31;;;;;;;;;;;;;;;16.20;100.00;101338.22;4976945;28;20082;-72
2023/09/17 09:46:01;;;;;;;;;;;;;;;16.14;100.00;101325.34;4976476;28;19953;-72
2023/09/17 09:48:27;;;;;;;;;;;;;;;16.14;100.00;101317.44;4976685;28;20460;-72
2023/09/17 09:50:52;;;;;;;;;;;;;;;16.20;100.00;101325.00;4963918;28;19941;-72
2023/09/17 09:53:18;;;;;;;;;;;;;;;16.23;100.00;101319.56;4973119;28;20201;-72
2023/09/17 09:55:44;;;;;;;;;;;;;;;16.28;100.00;101311.34;4975811;28;20185;-72
2023/09/17 09:58:10;;;;;;;;;;;;;;;16.31;100.00;101311.19;4973312;28;19969;-72
2023/09/17 10:00:35;;;;;;;;;;;;;;;16.42;100.00;101321.13;4964245;28;19945;-72
2023/09/17 10:03:01;;;;;;;;;;;;;;;16.49;100.00;101319.84;4975276;28;20437;-72
2023/09/17 10:05:37;;;;;;;;;;;;;;;16.39;100.00;101323.94;4968285;28;19922;-72
2023/09/17 10:08:05;;;;;;;;;;;;;;;16.44;100.00;101314.81;4963820;28;19929;-71
2023/09/17 10:10:31;;;;;;;;;;;;;;;16.46;100.00;101307.66;4967027;28;19925;-71
2023/09/17 10:12:56;;;;;;;;;;;;;;;16.53;100.00;101300.22;4968844;28;19918;-71
2023/09/17 10:15:22;;;;;;;;;;;;;;;16.57;100.00;101304.41;4958378;28;19918;-71
2023/09/17 10:17:48;;;;;;;;;;;;;;;16.57;100.00;101293.81;4969304;28;19994;-71
2023/09/17 10:20:15;;;;;;;;;;;;;;;16.57;100.00;101299.13;4975559;28;19925;-72
2023/09/17 10:22:41;;;;;;;;;;;;;;;16.53;100.00;101310.78;4974550;28;20275;-72
2023/09/17 10:25:08;;;;;;;;;;;;;;;16.55;100.00;101303.63;4973974;28;20295;-71
2023/09/17 10:27:35;;;;;;;;;;;;;;;16.58;100.00;101299.94;4967040;28;19925;-71
2023/09/17 10:30:03;;;;;;;;;;;;;;;16.54;100.00;101294.00;4965036;28;19922;-71
2023/09/17 10:32:30;;;;;;;;;;;;;;;16.50;100.00;101287.19;4965977;28;19925;-72
2023/09/17 10:34:57;;;;;;;;;;;;;;;16.50;100.00;101300.41;4963630;28;19940;-72
2023/09/17 10:37:23;;;;;;;;;;;;;;;16.56;100.00;101304.50;4971814;28;20154;-71
2023/09/17 10:39:48;;;;;;;;;;;;;;;16.54;100.00;101299.28;4959718;28;19992;-71
2023/09/17 10:42:15;;;;;;;;;;;;;;;16.59;100.00;101299.00;4972037;28;19956;-71
2023/09/17 10:44:42;;;;;;;;;;;;;;;16.59;100.00;101289.28;4961975;28;19948;-71
2023/09/17 10:47:09;;;;;;;;;;;;;;;16.57;100.00;101285.91;4964518;28;19918;-71
2023/09/17 10:49:36;;;;;;;;;;;;;;;16.61;100.00;101294.50;4967118;28;20069;-71
2023/09/17 10:52:02;;;;;;;;;;;;;;;16.60;100.00;101295.44;4965951;28;19924;-72
2023/09/17 10:54:27;;;;;;;;;;;;;;;16.64;100.00;101287.19;4972454;28;19949;-72
2023/09/17 10:56:54;;;;;;;;;;;;;;;16.65;100.00;101283.63;4971957;28;19921;-72
2023/09/17 10:59:20;;;;;;;;;;;;;;;16.68;100.00;101283.47;4974266;28;19918;-72
2023/09/17 11:01:45;;;;;;;;;;;;;;;16.69;100.00;101281.66;4974564;28;19930;-71
2023/09/17 11:04:18;;;;;;;;;;;;;;;16.71;100.00;101274.47;4975351;28;19913;-72
2023/09/17 11:06:45;;;;;;;;;;;;;;;16.76;100.00;101280.34;4974479;28;20117;-71
2023/09/17 11:09:11;;;;;;;;;;;;;;;16.78;100.00;101272.34;4974901;28;19925;-71
2023/09/17 11:11:36;;;;;;;;;;;;;;;16.76;100.00;101274.22;4966814;28;19941;-71
2023/09/17 11:14:04;;;;;;;;;;;;;;;16.82;100.00;101277.31;4974877;28;19918;-71
2023/09/17 11:16:30;;;;;;;;;;;;;;;16.82;100.00;101281.78;4966628;28;20239;-71
2023/09/17 11:19:05;;;;;;;;;;;;;;;16.87;100.00;101285.03;4974832;28;20521;-71
2023/09/17 11:21:38;;;;;;;;;;;;;;;16.89;100.00;101276.06;4963496;28;19997;-71
2023/09/17 11:24:06;;;;;;;;;;;;;;;16.91;100.00;101264.53;4963737;28;19925;-71
2023/09/17 11:26:31;;;;;;;;;;;;;;;16.93;100.00;101275.88;4966879;28;19924;-72
2023/09/17 11:28:58;;;;;;;;;;;;;;;16.97;100.00;101277.38;4970462;28;19922;-71
2023/09/17 11:31:27;;;;;;;;;;;;;;;16.98;100.00;101277.28;4965783;28;19996;-71
2023/09/17 11:33:52;;;;;;;;;;;;;;;16.98;100.00;101274.66;4962032;28;19917;-71
2023/09/17 11:36:18;;;;;;;;;;;;;;;16.98;100.00;101269.34;4966532;28;19945;-71
2023/09/17 11:38:47;;;;;;;;;;;;;;;17.04;100.00;101268.13;4965183;28;19925;-71
2023/09/17 11:41:15;;;;;;;;;;;;;;;17.11;100.00;101266.81;4960627;28;19922;-71
2023/09/17 11:43:45;;;;;;;;;;;;;;;17.08;100.00;101281.09;4965270;28;19965;-71
2023/09/17 11:46:11;;;;;;;;;;;;;;;17.09;100.00;101281.94;4965092;28;19918;-72
2023/09/17 11:48:37;;;;;;;;;;;;;;;17.12;100.00;101289.69;4960400;28;20131;-72
2023/09/17 11:51:20;;;;;;;;;;;;;;;17.10;100.00;101299.53;4965020;28;20284;-71
2023/09/17 11:54:05;;;;;;;;;;;;;;;17.05;100.00;101291.84;4972727;28;19918;-71
2023/09/17 11:56:31;;;;;;;;;;;;;;;17.05;100.00;101297.16;4974280;28;19914;-71
2023/09/17 11:58:59;;;;;;;;;;;;;;;17.10;100.00;101301.31;4971133;28;19940;-72
2023/09/17 12:01:25;;;;;;;;;;;;;;;17.10;100.00;101293.38;4973887;28;19961;-72
2023/09/17 12:03:52;;;;;;;;;;;;;;;17.06;100.00;101293.56;4967610;28;19926;-72
2023/09/17 12:06:19;;;;;;;;;;;;;;;17.07;100.00;101302.34;4965877;28;19928;-72
2023/09/17 12:08:45;;;;;;;;;;;;;;;17.09;100.00;101303.09;4971928;28;19933;-72
2023/09/17 12:11:21;;;;;;;;;;;;;;;17.11;100.00;101306.50;4973964;28;19926;-72
2023/09/17 12:13:52;;;;;;;;;;;;;;;17.14;100.00;101306.31;4965518;28;20098;-72
2023/09/17 12:16:18;;;;;;;;;;;;;;;17.18;100.00;101307.00;4973934;28;19925;-72
2023/09/17 12:18:44;;;;;;;;;;;;;;;17.19;100.00;101298.97;4972228;28;19918;-72
2023/09/17 12:21:10;;;;;;;;;;;;;;;17.19;100.00;101300.75;4973963;28;19913;-72
2023/09/17 12:23:47;;;;;;;;;;;;;;;17.20;100.00;101295.34;4971682;28;19925;-72
2023/09/17 12:26:21;;;;;;;;;;;;;;;17.24;100.00;101303.97;4973937;28;19945;-72
2023/09/17 12:28:46;;;;;;;;;;;;;;;17.25;100.00;101295.94;4958460;28;19922;-72
2023/09/17 12:31:12;;;;;;;;;;;;;;;17.26;100.00;101286.19;4972757;28;20341;-72
2023/09/17 12:33:38;;;;;;;;;;;;;;;17.28;100.00;101292.22;4968507;28;19925;-72